Pine Ridge Information

FAA: IEN - ICAO: KIEN

Pine Ridge (Airport) Location

State South Dakota
County Shannon
City Pine Ridge
Pine Ridge (Airport) is 2 miles east of Pine Ridge, SD.
Latitude 43-01-16.5854N
Longitude 102-30-23.7831W
Elevation 3,332ft

Pine Ridge METARs

METAR KIEN 190852Z AUTO 25004KT 10SM CLR 14/10 A2962 RMK AO2 SLP005 T01390100 56041
Altimeter 29.62"
Temperature 13.9°C (57.0°F)
Wind 250° at 4KT
Clouds Skies are clear.
Visibility 10.0mi
Time observed: 2022-05-19T08:52:00Z

Pine Ridge (Airport) Details

Status Operational
Activation May 1961
Ownership Public
Usage Public
Chart CHEYENNE
ATC on-site No
Beacon schedule N/A
Beacon color clear green

Pine Ridge (Airport) Contacts

Owner OGLALA SIOUX TRIBE
Owner address PO BOX H, PINE RIDGE, SD 57770
Owner phone 605-867-5821
Manager TAMMY MILLER
Manager address 917 N WASHINGTON AVENUE, MADISON, SD 57042
Manager phone 605-256-6551

Pine Ridge Radio Frequencies

Pine Ridge (Airport) Radio Frequencies

UNICOM N/A
Common traffic advisory frequency (CTAF) 122.9